sensor_id;sensor_type;location;lat;lon;timestamp;temperature;humidity
6110;DHT22;3085;49.444;11.054;2022-08-14T00:00:40;23.30;99.90
6110;DHT22;3085;49.444;11.054;2022-08-14T00:03:06;23.60;99.90
6110;DHT22;3085;49.444;11.054;2022-08-14T00:05:35;24.00;99.90
6110;DHT22;3085;49.444;11.054;2022-08-14T00:08:02;23.30;99.90
6110;DHT22;3085;49.444;11.054;2022-08-14T00:10:28;24.40;99.90
6110;DHT22;3085;49.444;11.054;2022-08-14T00:12:55;23.20;99.90
6110;DHT22;3085;49.444;11.054;2022-08-14T00:15:26;23.10;99.90
6110;DHT22;3085;49.444;11.054;2022-08-14T00:17:53;23.10;99.90
6110;DHT22;3085;49.444;11.054;2022-08-14T00:20:22;23.10;99.90
6110;DHT22;3085;49.444;11.054;2022-08-14T00:22:51;23.10;99.90
6110;DHT22;3085;49.444;11.054;2022-08-14T00:25:19;23.10;99.90
6110;DHT22;3085;49.444;11.054;2022-08-14T00:27:45;23.10;99.90
6110;DHT22;3085;49.444;11.054;2022-08-14T00:30:13;23.00;99.90
6110;DHT22;3085;49.444;11.054;2022-08-14T00:32:41;23.00;99.90
6110;DHT22;3085;49.444;11.054;2022-08-14T00:35:09;23.00;99.90
6110;DHT22;3085;49.444;11.054;2022-08-14T00:37:37;23.00;99.90
6110;DHT22;3085;49.444;11.054;2022-08-14T00:40:08;22.90;99.90
6110;DHT22;3085;49.444;11.054;2022-08-14T00:42:35;22.80;99.90
6110;DHT22;3085;49.444;11.054;2022-08-14T00:45:02;22.70;99.90
6110;DHT22;3085;49.444;11.054;2022-08-14T00:47:29;22.50;99.90
6110;DHT22;3085;49.444;11.054;2022-08-14T00:49:56;22.60;99.90
6110;DHT22;3085;49.444;11.054;2022-08-14T00:52:24;22.60;99.90
6110;DHT22;3085;49.444;11.054;2022-08-14T00:54:51;22.70;99.90
6110;DHT22;3085;49.444;11.054;2022-08-14T00:57:21;22.70;99.90
6110;DHT22;3085;49.444;11.054;2022-08-14T00:59:48;22.70;99.90
6110;DHT22;3085;49.444;11.054;2022-08-14T01:02:17;22.70;99.90
6110;DHT22;3085;49.444;11.054;2022-08-14T01:04:45;22.70;99.90
6110;DHT22;3085;49.444;11.054;2022-08-14T01:07:12;22.70;99.90
6110;DHT22;3085;49.444;11.054;2022-08-14T01:09:47;22.60;99.90
6110;DHT22;3085;49.444;11.054;2022-08-14T01:12:15;22.60;99.90
6110;DHT22;3085;49.444;11.054;2022-08-14T01:14:44;22.60;99.90
6110;DHT22;3085;49.444;11.054;2022-08-14T01:17:11;22.60;99.90
6110;DHT22;3085;49.444;11.054;2022-08-14T01:19:38;22.60;99.90
6110;DHT22;3085;49.444;11.054;2022-08-14T01:22:38;22.50;99.90
6110;DHT22;3085;49.444;11.054;2022-08-14T01:25:05;22.50;99.90
6110;DHT22;3085;49.444;11.054;2022-08-14T01:27:32;22.50;99.90
6110;DHT22;3085;49.444;11.054;2022-08-14T01:30:00;22.60;99.90
6110;DHT22;3085;49.444;11.054;2022-08-14T01:32:28;22.40;99.90
6110;DHT22;3085;49.444;11.054;2022-08-14T01:34:55;22.60;99.90
6110;DHT22;3085;49.444;11.054;2022-08-14T01:37:22;22.60;99.90
6110;DHT22;3085;49.444;11.054;2022-08-14T01:39:51;22.70;99.90
6110;DHT22;3085;49.444;11.054;2022-08-14T01:42:18;22.90;99.90
6110;DHT22;3085;49.444;11.054;2022-08-14T01:44:46;22.60;99.90
6110;DHT22;3085;49.444;11.054;2022-08-14T01:47:15;22.70;99.90
6110;DHT22;3085;49.444;11.054;2022-08-14T01:49:44;22.60;99.90
6110;DHT22;3085;49.444;11.054;2022-08-14T01:52:11;22.60;99.90
6110;DHT22;3085;49.444;11.054;2022-08-14T01:54:38;22.60;99.90
6110;DHT22;3085;49.444;11.054;2022-08-14T01:57:06;22.50;99.90
6110;DHT22;3085;49.444;11.054;2022-08-14T01:59:36;22.50;99.90
6110;DHT22;3085;49.444;11.054;2022-08-14T02:02:07;22.40;99.90
6110;DHT22;3085;49.444;11.054;2022-08-14T02:04:38;22.40;99.90
6110;DHT22;3085;49.444;11.054;2022-08-14T02:07:06;22.40;99.90
6110;DHT22;3085;49.444;11.054;2022-08-14T02:09:34;22.40;99.90
6110;DHT22;3085;49.444;11.054;2022-08-14T02:12:04;22.40;99.90
6110;DHT22;3085;49.444;11.054;2022-08-14T02:14:32;22.40;99.90
6110;DHT22;3085;49.444;11.054;2022-08-14T02:17:00;22.40;99.90
6110;DHT22;3085;49.444;11.054;2022-08-14T02:19:30;22.40;99.90
6110;DHT22;3085;49.444;11.054;2022-08-14T02:21:57;22.40;99.90
6110;DHT22;3085;49.444;11.054;2022-08-14T02:24:26;22.30;99.90
6110;DHT22;3085;49.444;11.054;2022-08-14T02:26:55;22.20;99.90
6110;DHT22;3085;49.444;11.054;2022-08-14T02:29:29;22.20;99.90
6110;DHT22;3085;49.444;11.054;2022-08-14T02:31:59;22.20;99.90
6110;DHT22;3085;49.444;11.054;2022-08-14T02:34:28;22.10;99.90
6110;DHT22;3085;49.444;11.054;2022-08-14T02:36:58;22.10;99.90
6110;DHT22;3085;49.444;11.054;2022-08-14T02:39:27;22.10;99.90
6110;DHT22;3085;49.444;11.054;2022-08-14T02:41:54;22.10;99.90
6110;DHT22;3085;49.444;11.054;2022-08-14T02:44:21;22.10;99.90
6110;DHT22;3085;49.444;11.054;2022-08-14T02:46:49;22.10;99.90
6110;DHT22;3085;49.444;11.054;2022-08-14T02:49:18;22.00;99.90
6110;DHT22;3085;49.444;11.054;2022-08-14T02:51:54;22.00;99.90
6110;DHT22;3085;49.444;11.054;2022-08-14T02:54:21;22.00;99.90
6110;DHT22;3085;49.444;11.054;2022-08-14T02:56:48;22.00;99.90
6110;DHT22;3085;49.444;11.054;2022-08-14T02:59:16;22.00;99.90
6110;DHT22;3085;49.444;11.054;2022-08-14T03:01:43;22.00;99.90
6110;DHT22;3085;49.444;11.054;2022-08-14T03:04:11;22.00;99.90
6110;DHT22;3085;49.444;11.054;2022-08-14T03:06:39;22.10;99.90
6110;DHT22;3085;49.444;11.054;2022-08-14T03:09:08;22.00;99.90
6110;DHT22;3085;49.444;11.054;2022-08-14T03:11:35;22.00;99.90
6110;DHT22;3085;49.444;11.054;2022-08-14T03:14:02;22.10;99.90
6110;DHT22;3085;49.444;11.054;2022-08-14T03:16:30;22.10;99.90
6110;DHT22;3085;49.444;11.054;2022-08-14T03:19:00;22.00;99.90
6110;DHT22;3085;49.444;11.054;2022-08-14T03:21:28;22.00;99.90
6110;DHT22;3085;49.444;11.054;2022-08-14T03:23:57;22.00;99.90
6110;DHT22;3085;49.444;11.054;2022-08-14T03:26:33;21.90;99.90
6110;DHT22;3085;49.444;11.054;2022-08-14T03:29:05;21.90;99.90
6110;DHT22;3085;49.444;11.054;2022-08-14T03:31:32;21.90;99.90
6110;DHT22;3085;49.444;11.054;2022-08-14T03:33:59;21.80;99.90
6110;DHT22;3085;49.444;11.054;2022-08-14T03:36:26;21.80;99.90
6110;DHT22;3085;49.444;11.054;2022-08-14T03:38:54;21.70;99.90
6110;DHT22;3085;49.444;11.054;2022-08-14T03:41:25;21.70;99.90
6110;DHT22;3085;49.444;11.054;2022-08-14T03:43:54;21.70;99.90
6110;DHT22;3085;49.444;11.054;2022-08-14T03:46:22;21.70;99.90
6110;DHT22;3085;49.444;11.054;2022-08-14T03:48:51;21.70;99.90
6110;DHT22;3085;49.444;11.054;2022-08-14T03:51:19;21.70;99.90
6110;DHT22;3085;49.444;11.054;2022-08-14T03:53:47;21.70;99.90
6110;DHT22;3085;49.444;11.054;2022-08-14T03:56:16;21.50;99.90
6110;DHT22;3085;49.444;11.054;2022-08-14T03:58:47;21.50;99.90
6110;DHT22;3085;49.444;11.054;2022-08-14T04:01:15;21.40;99.90
6110;DHT22;3085;49.444;11.054;2022-08-14T04:03:44;21.40;99.90
6110;DHT22;3085;49.444;11.054;2022-08-14T04:06:10;21.40;99.90
6110;DHT22;3085;49.444;11.054;2022-08-14T04:08:38;21.50;99.90
6110;DHT22;3085;49.444;11.054;2022-08-14T04:11:06;21.50;99.90
6110;DHT22;3085;49.444;11.054;2022-08-14T04:13:36;21.50;99.90
6110;DHT22;3085;49.444;11.054;2022-08-14T04:16:07;21.40;99.90
6110;DHT22;3085;49.444;11.054;2022-08-14T04:18:37;21.40;99.90
6110;DHT22;3085;49.444;11.054;2022-08-14T04:21:04;21.40;99.90
6110;DHT22;3085;49.444;11.054;2022-08-14T04:23:31;21.50;99.90
6110;DHT22;3085;49.444;11.054;2022-08-14T04:26:04;21.50;99.90
6110;DHT22;3085;49.444;11.054;2022-08-14T04:28:34;21.50;99.90
6110;DHT22;3085;49.444;11.054;2022-08-14T04:31:01;21.50;99.90
6110;DHT22;3085;49.444;11.054;2022-08-14T04:33:29;21.50;99.90
6110;DHT22;3085;49.444;11.054;2022-08-14T04:35:56;21.50;99.90
6110;DHT22;3085;49.444;11.054;2022-08-14T04:38:23;21.50;99.90
6110;DHT22;3085;49.444;11.054;2022-08-14T04:41:09;21.50;99.90
6110;DHT22;3085;49.444;11.054;2022-08-14T04:43:53;21.50;99.90
6110;DHT22;3085;49.444;11.054;2022-08-14T04:46:21;21.40;99.90
6110;DHT22;3085;49.444;11.054;2022-08-14T04:48:50;21.40;99.90
6110;DHT22;3085;49.444;11.054;2022-08-14T04:51:18;21.50;99.90
6110;DHT22;3085;49.444;11.054;2022-08-14T04:53:47;21.50;99.90
6110;DHT22;3085;49.444;11.054;2022-08-14T04:56:15;21.50;99.90
6110;DHT22;3085;49.444;11.054;2022-08-14T04:58:44;21.50;99.90
6110;DHT22;3085;49.444;11.054;2022-08-14T05:01:12;21.50;99.90
6110;DHT22;3085;49.444;11.054;2022-08-14T05:03:40;21.50;99.90
6110;DHT22;3085;49.444;11.054;2022-08-14T05:06:10;21.50;99.90
6110;DHT22;3085;49.444;11.054;2022-08-14T05:08:38;21.50;99.90
6110;DHT22;3085;49.444;11.054;2022-08-14T05:11:06;21.40;99.90
6110;DHT22;3085;49.444;11.054;2022-08-14T05:13:34;21.50;99.90
6110;DHT22;3085;49.444;11.054;2022-08-14T05:16:03;21.50;99.90
6110;DHT22;3085;49.444;11.054;2022-08-14T05:18:32;21.50;99.90
6110;DHT22;3085;49.444;11.054;2022-08-14T05:21:01;21.50;99.90
6110;DHT22;3085;49.444;11.054;2022-08-14T05:23:31;21.60;99.90
6110;DHT22;3085;49.444;11.054;2022-08-14T05:25:59;21.60;99.90
6110;DHT22;3085;49.444;11.054;2022-08-14T05:28:30;21.60;99.90
6110;DHT22;3085;49.444;11.054;2022-08-14T05:30:58;21.60;99.90
6110;DHT22;3085;49.444;11.054;2022-08-14T05:33:28;21.60;99.90
6110;DHT22;3085;49.444;11.054;2022-08-14T05:35:57;21.60;99.90
6110;DHT22;3085;49.444;11.054;2022-08-14T05:38:27;21.60;99.90
6110;DHT22;3085;49.444;11.054;2022-08-14T05:41:00;21.70;99.90
6110;DHT22;3085;49.444;11.054;2022-08-14T05:43:27;21.70;99.90
6110;DHT22;3085;49.444;11.054;2022-08-14T05:45:55;21.80;99.90
6110;DHT22;3085;49.444;11.054;2022-08-14T05:48:22;21.80;99.90
6110;DHT22;3085;49.444;11.054;2022-08-14T05:50:49;21.80;99.90
6110;DHT22;3085;49.444;11.054;2022-08-14T05:53:19;21.70;99.90
6110;DHT22;3085;49.444;11.054;2022-08-14T05:55:46;21.80;99.90
6110;DHT22;3085;49.444;11.054;2022-08-14T05:58:14;21.90;99.90
6110;DHT22;3085;49.444;11.054;2022-08-14T06:00:43;21.90;99.90
6110;DHT22;3085;49.444;11.054;2022-08-14T06:03:12;21.80;99.90
6110;DHT22;3085;49.444;11.054;2022-08-14T06:05:41;21.80;99.90
6110;DHT22;3085;49.444;11.054;2022-08-14T06:08:14;21.90;99.90
6110;DHT22;3085;49.444;11.054;2022-08-14T06:10:42;21.90;99.90
6110;DHT22;3085;49.444;11.054;2022-08-14T06:13:09;21.90;99.90
6110;DHT22;3085;49.444;11.054;2022-08-14T06:15:37;21.90;99.90
6110;DHT22;3085;49.444;11.054;2022-08-14T06:18:06;22.00;99.90
6110;DHT22;3085;49.444;11.054;2022-08-14T06:20:33;22.10;99.90
6110;DHT22;3085;49.444;11.054;2022-08-14T06:23:01;22.10;99.90
6110;DHT22;3085;49.444;11.054;2022-08-14T06:25:28;22.20;99.90
6110;DHT22;3085;49.444;11.054;2022-08-14T06:27:54;22.30;99.90
6110;DHT22;3085;49.444;11.054;2022-08-14T06:30:23;22.30;99.90
6110;DHT22;3085;49.444;11.054;2022-08-14T06:32:52;22.30;99.90
6110;DHT22;3085;49.444;11.054;2022-08-14T06:35:19;22.40;99.90
6110;DHT22;3085;49.444;11.054;2022-08-14T06:37:50;22.40;99.90
6110;DHT22;3085;49.444;11.054;2022-08-14T06:40:21;22.40;99.90
6110;DHT22;3085;49.444;11.054;2022-08-14T06:42:48;22.40;99.90
6110;DHT22;3085;49.444;11.054;2022-08-14T06:45:16;22.60;99.90
6110;DHT22;3085;49.444;11.054;2022-08-14T06:47:44;22.60;99.90
6110;DHT22;3085;49.444;11.054;2022-08-14T06:50:14;22.60;99.90
6110;DHT22;3085;49.444;11.054;2022-08-14T06:52:41;22.70;99.90
6110;DHT22;3085;49.444;11.054;2022-08-14T06:55:10;22.80;99.90
6110;DHT22;3085;49.444;11.054;2022-08-14T06:57:39;22.90;99.90
6110;DHT22;3085;49.444;11.054;2022-08-14T07:00:09;23.10;99.90
6110;DHT22;3085;49.444;11.054;2022-08-14T07:02:36;23.20;99.90
6110;DHT22;3085;49.444;11.054;2022-08-14T07:05:22;23.30;99.90
6110;DHT22;3085;49.444;11.054;2022-08-14T07:08:13;23.10;99.90
6110;DHT22;3085;49.444;11.054;2022-08-14T07:10:40;23.20;99.90
6110;DHT22;3085;49.444;11.054;2022-08-14T07:13:11;23.30;99.90
6110;DHT22;3085;49.444;11.054;2022-08-14T07:15:39;23.30;99.90
6110;DHT22;3085;49.444;11.054;2022-08-14T07:18:10;23.50;99.90
6110;DHT22;3085;49.444;11.054;2022-08-14T07:20:40;23.60;99.90
6110;DHT22;3085;49.444;11.054;2022-08-14T07:23:09;23.70;99.90
6110;DHT22;3085;49.444;11.054;2022-08-14T07:25:37;23.80;99.90
6110;DHT22;3085;49.444;11.054;2022-08-14T07:28:09;23.90;99.90
6110;DHT22;3085;49.444;11.054;2022-08-14T07:30:37;23.80;99.90
6110;DHT22;3085;49.444;11.054;2022-08-14T07:33:05;23.90;99.90
6110;DHT22;3085;49.444;11.054;2022-08-14T07:35:33;24.10;99.90
6110;DHT22;3085;49.444;11.054;2022-08-14T07:38:01;24.20;99.90
6110;DHT22;3085;49.444;11.054;2022-08-14T07:40:28;24.20;99.90
6110;DHT22;3085;49.444;11.054;2022-08-14T07:42:55;24.40;99.90
6110;DHT22;3085;49.444;11.054;2022-08-14T07:45:22;24.50;99.90
6110;DHT22;3085;49.444;11.054;2022-08-14T07:47:49;24.60;99.90
6110;DHT22;3085;49.444;11.054;2022-08-14T07:50:17;24.60;99.90
6110;DHT22;3085;49.444;11.054;2022-08-14T07:52:47;24.70;99.90
6110;DHT22;3085;49.444;11.054;2022-08-14T07:55:16;24.70;99.90
6110;DHT22;3085;49.444;11.054;2022-08-14T07:57:45;24.80;99.90
6110;DHT22;3085;49.444;11.054;2022-08-14T08:00:15;24.90;99.90
6110;DHT22;3085;49.444;11.054;2022-08-14T08:02:43;25.00;99.90
6110;DHT22;3085;49.444;11.054;2022-08-14T08:05:11;25.00;99.90
6110;DHT22;3085;49.444;11.054;2022-08-14T08:07:40;25.00;99.90
6110;DHT22;3085;49.444;11.054;2022-08-14T08:10:09;25.00;99.90
6110;DHT22;3085;49.444;11.054;2022-08-14T08:12:57;25.10;99.90
6110;DHT22;3085;49.444;11.054;2022-08-14T08:15:25;25.20;99.90
6110;DHT22;3085;49.444;11.054;2022-08-14T08:17:52;25.20;99.90
6110;DHT22;3085;49.444;11.054;2022-08-14T08:20:21;25.30;99.90
6110;DHT22;3085;49.444;11.054;2022-08-14T08:22:49;25.30;99.90
6110;DHT22;3085;49.444;11.054;2022-08-14T08:25:17;25.30;99.90
6110;DHT22;3085;49.444;11.054;2022-08-14T08:27:55;25.40;99.90
6110;DHT22;3085;49.444;11.054;2022-08-14T08:30:22;25.40;99.90
6110;DHT22;3085;49.444;11.054;2022-08-14T08:32:51;25.50;99.90
6110;DHT22;3085;49.444;11.054;2022-08-14T08:35:21;25.50;99.90
6110;DHT22;3085;49.444;11.054;2022-08-14T08:37:48;25.50;99.90
6110;DHT22;3085;49.444;11.054;2022-08-14T08:40:25;25.60;99.90
6110;DHT22;3085;49.444;11.054;2022-08-14T08:42:52;25.70;99.90
6110;DHT22;3085;49.444;11.054;2022-08-14T08:45:21;25.80;99.90
6110;DHT22;3085;49.444;11.054;2022-08-14T08:47:49;25.80;99.90
6110;DHT22;3085;49.444;11.054;2022-08-14T08:50:22;25.80;99.90
6110;DHT22;3085;49.444;11.054;2022-08-14T08:52:56;26.00;99.90
6110;DHT22;3085;49.444;11.054;2022-08-14T08:55:28;26.00;99.90
6110;DHT22;3085;49.444;11.054;2022-08-14T08:57:57;26.20;99.90
6110;DHT22;3085;49.444;11.054;2022-08-14T09:00:26;26.10;99.90
6110;DHT22;3085;49.444;11.054;2022-08-14T09:03:00;26.20;99.90
6110;DHT22;3085;49.444;11.054;2022-08-14T09:05:28;26.40;99.90
6110;DHT22;3085;49.444;11.054;2022-08-14T09:08:08;26.40;99.90
6110;DHT22;3085;49.444;11.054;2022-08-14T09:10:35;26.50;99.90
6110;DHT22;3085;49.444;11.054;2022-08-14T09:13:03;26.50;99.90
6110;DHT22;3085;49.444;11.054;2022-08-14T09:15:31;26.50;99.90
6110;DHT22;3085;49.444;11.054;2022-08-14T09:17:58;26.50;99.90
6110;DHT22;3085;49.444;11.054;2022-08-14T09:20:25;26.60;99.90
6110;DHT22;3085;49.444;11.054;2022-08-14T09:22:53;26.60;99.90
6110;DHT22;3085;49.444;11.054;2022-08-14T09:25:21;26.60;99.90
6110;DHT22;3085;49.444;11.054;2022-08-14T09:27:48;26.80;99.90
6110;DHT22;3085;49.444;11.054;2022-08-14T09:30:15;26.70;99.90
6110;DHT22;3085;49.444;11.054;2022-08-14T09:32:53;26.80;99.90
6110;DHT22;3085;49.444;11.054;2022-08-14T09:35:26;26.80;99.90
6110;DHT22;3085;49.444;11.054;2022-08-14T09:38:03;26.90;99.90
6110;DHT22;3085;49.444;11.054;2022-08-14T09:40:41;26.90;99.90
6110;DHT22;3085;49.444;11.054;2022-08-14T09:43:19;27.00;99.90
6110;DHT22;3085;49.444;11.054;2022-08-14T09:45:52;27.10;99.90
6110;DHT22;3085;49.444;11.054;2022-08-14T09:48:25;27.10;99.90
6110;DHT22;3085;49.444;11.054;2022-08-14T09:50:53;27.20;99.90
6110;DHT22;3085;49.444;11.054;2022-08-14T09:53:39;27.10;99.90
6110;DHT22;3085;49.444;11.054;2022-08-14T09:56:08;27.30;99.90
6110;DHT22;3085;49.444;11.054;2022-08-14T09:58:38;27.30;99.90
6110;DHT22;3085;49.444;11.054;2022-08-14T10:01:09;27.30;99.90
6110;DHT22;3085;49.444;11.054;2022-08-14T10:03:46;27.30;99.90
6110;DHT22;3085;49.444;11.054;2022-08-14T10:06:15;27.30;99.90
6110;DHT22;3085;49.444;11.054;2022-08-14T10:08:45;27.40;99.90
6110;DHT22;3085;49.444;11.054;2022-08-14T10:11:13;27.40;99.90
6110;DHT22;3085;49.444;11.054;2022-08-14T10:13:42;27.50;99.90
6110;DHT22;3085;49.444;11.054;2022-08-14T10:16:09;27.60;99.90
6110;DHT22;3085;49.444;11.054;2022-08-14T10:18:37;27.50;99.90
6110;DHT22;3085;49.444;11.054;2022-08-14T10:21:08;27.50;99.90
6110;DHT22;3085;49.444;11.054;2022-08-14T10:23:40;27.40;99.90
6110;DHT22;3085;49.444;11.054;2022-08-14T10:26:08;27.50;99.90
6110;DHT22;3085;49.444;11.054;2022-08-14T10:28:41;27.60;99.90
6110;DHT22;3085;49.444;11.054;2022-08-14T10:31:22;27.50;99.90
6110;DHT22;3085;49.444;11.054;2022-08-14T10:34:02;27.60;99.90
6110;DHT22;3085;49.444;11.054;2022-08-14T10:36:32;27.70;99.90
6110;DHT22;3085;49.444;11.054;2022-08-14T10:39:03;27.90;99.90
6110;DHT22;3085;49.444;11.054;2022-08-14T10:41:36;27.90;99.90
6110;DHT22;3085;49.444;11.054;2022-08-14T10:44:06;27.90;99.90
6110;DHT22;3085;49.444;11.054;2022-08-14T10:46:42;27.90;99.90
6110;DHT22;3085;49.444;11.054;2022-08-14T10:49:18;27.90;99.90
6110;DHT22;3085;49.444;11.054;2022-08-14T10:51:56;28.00;99.90
6110;DHT22;3085;49.444;11.054;2022-08-14T10:54:30;28.20;99.90
6110;DHT22;3085;49.444;11.054;2022-08-14T10:56:58;28.30;99.90
6110;DHT22;3085;49.444;11.054;2022-08-14T10:59:41;28.50;99.90
6110;DHT22;3085;49.444;11.054;2022-08-14T11:02:20;28.50;99.90
6110;DHT22;3085;49.444;11.054;2022-08-14T11:05:04;28.50;99.90
6110;DHT22;3085;49.444;11.054;2022-08-14T11:07:32;28.60;99.90
6110;DHT22;3085;49.444;11.054;2022-08-14T11:10:03;28.70;99.90
6110;DHT22;3085;49.444;11.054;2022-08-14T11:12:39;28.70;99.90
6110;DHT22;3085;49.444;11.054;2022-08-14T11:15:07;28.60;99.90
6110;DHT22;3085;49.444;11.054;2022-08-14T11:17:34;28.50;99.90
6110;DHT22;3085;49.444;11.054;2022-08-14T11:20:05;28.50;99.90
6110;DHT22;3085;49.444;11.054;2022-08-14T11:22:33;28.60;99.90
6110;DHT22;3085;49.444;11.054;2022-08-14T11:25:03;28.60;99.90
6110;DHT22;3085;49.444;11.054;2022-08-14T11:27:32;28.70;99.90
6110;DHT22;3085;49.444;11.054;2022-08-14T11:30:00;28.80;99.90
6110;DHT22;3085;49.444;11.054;2022-08-14T11:32:28;28.80;99.90
6110;DHT22;3085;49.444;11.054;2022-08-14T11:34:56;28.80;99.90
6110;DHT22;3085;49.444;11.054;2022-08-14T11:37:24;28.80;99.90
6110;DHT22;3085;49.444;11.054;2022-08-14T11:39:52;28.80;99.90
6110;DHT22;3085;49.444;11.054;2022-08-14T11:42:21;28.80;99.80
6110;DHT22;3085;49.444;11.054;2022-08-14T11:44:49;28.70;99.60
6110;DHT22;3085;49.444;11.054;2022-08-14T11:47:17;28.70;99.70
6110;DHT22;3085;49.444;11.054;2022-08-14T11:49:45;28.70;99.90
6110;DHT22;3085;49.444;11.054;2022-08-14T11:52:13;28.80;99.90
6110;DHT22;3085;49.444;11.054;2022-08-14T11:54:42;28.80;99.50
6110;DHT22;3085;49.444;11.054;2022-08-14T11:57:13;28.60;99.50
6110;DHT22;3085;49.444;11.054;2022-08-14T11:59:40;28.60;99.70
6110;DHT22;3085;49.444;11.054;2022-08-14T12:02:09;28.60;99.80
6110;DHT22;3085;49.444;11.054;2022-08-14T12:04:47;28.50;99.90
6110;DHT22;3085;49.444;11.054;2022-08-14T12:07:14;28.50;99.60
6110;DHT22;3085;49.444;11.054;2022-08-14T12:09:44;28.50;99.80
6110;DHT22;3085;49.444;11.054;2022-08-14T12:12:14;28.70;99.10
6110;DHT22;3085;49.444;11.054;2022-08-14T12:14:49;28.80;99.10
6110;DHT22;3085;49.444;11.054;2022-08-14T12:17:22;28.90;98.70
6110;DHT22;3085;49.444;11.054;2022-08-14T12:19:51;29.00;99.00
6110;DHT22;3085;49.444;11.054;2022-08-14T12:22:30;28.90;98.60
6110;DHT22;3085;49.444;11.054;2022-08-14T12:24:59;29.00;98.70
6110;DHT22;3085;49.444;11.054;2022-08-14T12:27:39;29.10;98.20
6110;DHT22;3085;49.444;11.054;2022-08-14T12:30:07;29.30;98.80
6110;DHT22;3085;49.444;11.054;2022-08-14T12:32:38;29.40;98.50
6110;DHT22;3085;49.444;11.054;2022-08-14T12:35:07;29.40;98.20
6110;DHT22;3085;49.444;11.054;2022-08-14T12:37:35;29.70;98.10
6110;DHT22;3085;49.444;11.054;2022-08-14T12:40:12;29.80;97.60
6110;DHT22;3085;49.444;11.054;2022-08-14T12:42:40;29.90;97.20
6110;DHT22;3085;49.444;11.054;2022-08-14T12:45:10;30.00;97.30
6110;DHT22;3085;49.444;11.054;2022-08-14T12:47:38;30.20;96.40
6110;DHT22;3085;49.444;11.054;2022-08-14T12:50:06;30.20;97.00
6110;DHT22;3085;49.444;11.054;2022-08-14T12:52:35;30.20;96.10
6110;DHT22;3085;49.444;11.054;2022-08-14T12:55:07;30.10;96.50
6110;DHT22;3085;49.444;11.054;2022-08-14T12:57:38;30.20;96.40
6110;DHT22;3085;49.444;11.054;2022-08-14T13:00:10;30.10;95.80
6110;DHT22;3085;49.444;11.054;2022-08-14T13:02:39;30.30;95.60
6110;DHT22;3085;49.444;11.054;2022-08-14T13:05:07;30.30;95.10
6110;DHT22;3085;49.444;11.054;2022-08-14T13:07:35;30.10;94.90
6110;DHT22;3085;49.444;11.054;2022-08-14T13:10:06;30.10;95.40
6110;DHT22;3085;49.444;11.054;2022-08-14T13:12:33;30.10;95.20
6110;DHT22;3085;49.444;11.054;2022-08-14T13:15:04;30.20;95.20
6110;DHT22;3085;49.444;11.054;2022-08-14T13:17:38;30.40;94.80
6110;DHT22;3085;49.444;11.054;2022-08-14T13:20:06;30.50;95.30
6110;DHT22;3085;49.444;11.054;2022-08-14T13:22:35;30.70;94.70
6110;DHT22;3085;49.444;11.054;2022-08-14T13:25:03;30.80;94.50
6110;DHT22;3085;49.444;11.054;2022-08-14T13:27:31;30.90;94.60
6110;DHT22;3085;49.444;11.054;2022-08-14T13:30:04;30.70;93.60
6110;DHT22;3085;49.444;11.054;2022-08-14T13:32:32;30.80;93.90
6110;DHT22;3085;49.444;11.054;2022-08-14T13:35:05;30.90;94.00
6110;DHT22;3085;49.444;11.054;2022-08-14T13:37:32;30.80;93.60
6110;DHT22;3085;49.444;11.054;2022-08-14T13:39:59;30.90;93.80
6110;DHT22;3085;49.444;11.054;2022-08-14T13:42:27;31.00;93.50
6110;DHT22;3085;49.444;11.054;2022-08-14T13:44:55;31.00;93.00
6110;DHT22;3085;49.444;11.054;2022-08-14T13:47:25;30.80;93.20
6110;DHT22;3085;49.444;11.054;2022-08-14T13:49:55;31.00;92.90
6110;DHT22;3085;49.444;11.054;2022-08-14T13:52:25;31.00;93.40
6110;DHT22;3085;49.444;11.054;2022-08-14T13:54:57;31.20;93.30
6110;DHT22;3085;49.444;11.054;2022-08-14T13:57:27;31.10;92.60
6110;DHT22;3085;49.444;11.054;2022-08-14T13:59:59;31.30;92.60
6110;DHT22;3085;49.444;11.054;2022-08-14T14:02:29;31.40;92.30
6110;DHT22;3085;49.444;11.054;2022-08-14T14:04:59;31.50;92.10
6110;DHT22;3085;49.444;11.054;2022-08-14T14:07:27;31.50;92.00
6110;DHT22;3085;49.444;11.054;2022-08-14T14:09:57;31.60;91.60
6110;DHT22;3085;49.444;11.054;2022-08-14T14:12:26;31.50;91.70
6110;DHT22;3085;49.444;11.054;2022-08-14T14:14:54;31.90;92.50
6110;DHT22;3085;49.444;11.054;2022-08-14T14:17:21;31.90;91.00
6110;DHT22;3085;49.444;11.054;2022-08-14T14:19:51;31.80;90.80
6110;DHT22;3085;49.444;11.054;2022-08-14T14:22:18;31.70;91.00
6110;DHT22;3085;49.444;11.054;2022-08-14T14:24:45;31.70;90.40
6110;DHT22;3085;49.444;11.054;2022-08-14T14:27:12;31.70;91.10
6110;DHT22;3085;49.444;11.054;2022-08-14T14:29:42;31.40;90.60
6110;DHT22;3085;49.444;11.054;2022-08-14T14:32:11;31.20;91.10
6110;DHT22;3085;49.444;11.054;2022-08-14T14:34:40;31.40;91.20
6110;DHT22;3085;49.444;11.054;2022-08-14T14:37:10;31.20;90.90
6110;DHT22;3085;49.444;11.054;2022-08-14T14:39:38;31.60;91.00
6110;DHT22;3085;49.444;11.054;2022-08-14T14:42:06;31.50;91.40
6110;DHT22;3085;49.444;11.054;2022-08-14T14:44:36;31.60;91.30
6110;DHT22;3085;49.444;11.054;2022-08-14T14:47:07;31.70;91.30
6110;DHT22;3085;49.444;11.054;2022-08-14T14:49:34;31.80;91.30
6110;DHT22;3085;49.444;11.054;2022-08-14T14:52:03;31.70;90.80
6110;DHT22;3085;49.444;11.054;2022-08-14T14:54:32;31.90;90.80
6110;DHT22;3085;49.444;11.054;2022-08-14T14:57:00;31.70;91.20
6110;DHT22;3085;49.444;11.054;2022-08-14T14:59:28;31.50;91.10
6110;DHT22;3085;49.444;11.054;2022-08-14T15:01:59;31.20;91.30
6110;DHT22;3085;49.444;11.054;2022-08-14T15:04:31;31.90;91.70
6110;DHT22;3085;49.444;11.054;2022-08-14T15:06:58;31.00;91.90
6110;DHT22;3085;49.444;11.054;2022-08-14T15:09:25;30.70;91.40
6110;DHT22;3085;49.444;11.054;2022-08-14T15:11:53;30.70;91.30
6110;DHT22;3085;49.444;11.054;2022-08-14T15:14:22;30.60;91.10
6110;DHT22;3085;49.444;11.054;2022-08-14T15:16:49;30.60;91.20
6110;DHT22;3085;49.444;11.054;2022-08-14T15:19:16;30.40;91.30
6110;DHT22;3085;49.444;11.054;2022-08-14T15:21:43;30.30;91.50
6110;DHT22;3085;49.444;11.054;2022-08-14T15:24:11;30.30;91.50
6110;DHT22;3085;49.444;11.054;2022-08-14T15:26:40;30.30;91.50
6110;DHT22;3085;49.444;11.054;2022-08-14T15:29:10;30.30;91.50
6110;DHT22;3085;49.444;11.054;2022-08-14T15:31:40;30.10;91.60
6110;DHT22;3085;49.444;11.054;2022-08-14T15:34:08;30.20;91.80
6110;DHT22;3085;49.444;11.054;2022-08-14T15:36:40;30.20;91.90
6110;DHT22;3085;49.444;11.054;2022-08-14T15:39:08;30.20;92.30
6110;DHT22;3085;49.444;11.054;2022-08-14T15:41:35;30.10;92.20
6110;DHT22;3085;49.444;11.054;2022-08-14T15:44:03;30.10;91.90
6110;DHT22;3085;49.444;11.054;2022-08-14T15:46:33;30.00;92.20
6110;DHT22;3085;49.444;11.054;2022-08-14T15:49:00;29.90;91.50
6110;DHT22;3085;49.444;11.054;2022-08-14T15:51:27;29.90;91.60
6110;DHT22;3085;49.444;11.054;2022-08-14T15:53:56;30.00;92.20
6110;DHT22;3085;49.444;11.054;2022-08-14T15:56:23;30.10;91.90
6110;DHT22;3085;49.444;11.054;2022-08-14T15:58:50;30.30;91.50